createdAt,value
2023-04-18T00:01:44.506Z,99887.16
2023-04-18T00:04:11.836Z,99882.91
2023-04-18T00:06:40.109Z,99881.44
2023-04-18T00:09:06.798Z,99883.41
2023-04-18T00:11:34.539Z,99891.22
2023-04-18T00:14:01.296Z,99883.81
2023-04-18T00:16:28.414Z,99886.38
2023-04-18T00:18:55.486Z,99898.41
2023-04-18T00:21:22.762Z,99890.75
2023-04-18T00:23:49.408Z,99892.59
2023-04-18T00:26:16.069Z,99899.78
2023-04-18T00:28:42.827Z,99896.94
2023-04-18T00:31:09.484Z,99895.94
2023-04-18T00:33:36.144Z,99898.28
2023-04-18T00:36:04.472Z,99892.47
2023-04-18T00:38:31.074Z,99903.50
2023-04-18T00:40:57.756Z,99898.03
2023-04-18T00:43:24.846Z,99895.81
2023-04-18T00:45:51.466Z,99899.50
2023-04-18T00:48:18.545Z,99898.66
2023-04-18T00:50:48.307Z,99902.88
2023-04-18T00:53:15.862Z,99907.97
2023-04-18T00:55:43.115Z,99910.09
2023-04-18T00:58:10.024Z,99912.03
2023-04-18T01:00:36.926Z,99908.19
2023-04-18T01:03:03.895Z,99909.81
2023-04-18T01:05:30.926Z,99910.19
2023-04-18T01:08:01.034Z,99911.31
2023-04-18T01:10:30.458Z,99908.31
2023-04-18T01:13:12.331Z,99916.28
2023-04-18T01:15:47.225Z,99907.47
2023-04-18T01:18:16.874Z,99911.94
2023-04-18T01:20:49.429Z,99921.09
2023-04-18T01:23:18.374Z,99914.53
2023-04-18T01:25:46.317Z,99907.09
2023-04-18T01:28:14.611Z,99910.19
2023-04-18T01:30:41.521Z,99905.84
2023-04-18T01:33:08.150Z,99909.69
2023-04-18T01:35:34.786Z,99913.16
2023-04-18T01:38:01.552Z,99911.41
2023-04-18T01:40:28.485Z,99906.47
2023-04-18T01:42:55.045Z,99903.75
2023-04-18T01:45:22.455Z,99914.66
2023-04-18T01:47:49.184Z,99908.94
2023-04-18T01:50:15.952Z,99904.50
2023-04-18T01:52:43.723Z,99911.06
2023-04-18T01:55:10.551Z,99901.91
2023-04-18T01:57:38.307Z,99900.78
2023-04-18T02:00:06.607Z,99907.34
2023-04-18T02:02:33.431Z,99911.03
2023-04-18T02:05:00.247Z,99906.72
2023-04-18T02:07:26.960Z,99906.19
2023-04-18T02:09:53.590Z,99904.66
2023-04-18T02:12:20.248Z,99909.28
2023-04-18T02:14:52.663Z,99907.91
2023-04-18T02:17:23.600Z,99913.84
2023-04-18T02:19:51.778Z,99909.28
2023-04-18T02:22:18.448Z,99908.13
2023-04-18T02:24:45.363Z,99917.69
2023-04-18T02:27:13.162Z,99914.00
2023-04-18T02:29:39.878Z,99919.28
2023-04-18T02:32:06.998Z,99919.75
2023-04-18T02:34:33.914Z,99922.28
2023-04-18T02:37:00.654Z,99925.25
2023-04-18T02:39:27.360Z,99920.41
2023-04-18T02:41:54.044Z,99927.09
2023-04-18T02:44:20.723Z,99922.38
2023-04-18T02:46:47.364Z,99930.44
2023-04-18T02:49:14.352Z,99927.19
2023-04-18T02:51:41.090Z,99928.16
2023-04-18T02:54:07.690Z,99920.59
2023-04-18T02:56:39.860Z,99922.69
2023-04-18T02:59:07.236Z,99930.66
2023-04-18T03:01:34.014Z,99932.13
2023-04-18T03:04:00.753Z,99936.47
2023-04-18T03:06:27.409Z,99940.91
2023-04-18T03:08:55.245Z,99943.38
2023-04-18T03:11:22.472Z,99941.66
2023-04-18T03:13:49.196Z,99941.06
2023-04-18T03:16:16.664Z,99943.00
2023-04-18T03:18:43.421Z,99938.31
2023-04-18T03:21:10.351Z,99946.47
2023-04-18T03:23:37.003Z,99952.00
2023-04-18T03:26:06.666Z,99951.22
2023-04-18T03:28:33.575Z,99946.72
2023-04-18T03:31:00.492Z,99945.56
2023-04-18T03:33:28.797Z,99955.75
2023-04-18T03:35:55.522Z,99948.72
2023-04-18T03:38:22.172Z,99955.91
2023-04-18T03:40:49.020Z,99954.09
2023-04-18T03:43:15.829Z,99955.88
2023-04-18T03:45:44.192Z,99950.66
2023-04-18T03:48:11.018Z,99961.56
2023-04-18T03:50:37.637Z,99957.72
2023-04-18T03:53:04.253Z,99958.44
2023-04-18T03:55:30.969Z,99957.91
2023-04-18T03:57:59.249Z,99953.88
2023-04-18T04:00:26.321Z,99961.06
2023-04-18T04:02:53.204Z,99965.75
2023-04-18T04:05:19.905Z,99955.59
2023-04-18T04:07:46.854Z,99971.66
2023-04-18T04:10:13.468Z,99970.50
2023-04-18T04:12:40.055Z,99976.13
2023-04-18T04:15:07.159Z,99981.22
2023-04-18T04:17:33.922Z,99984.69
2023-04-18T04:20:00.525Z,99981.56
2023-04-18T04:22:27.366Z,99985.28
2023-04-18T04:24:54.027Z,99994.78
2023-04-18T04:27:20.650Z,99985.03
2023-04-18T04:29:47.332Z,99990.13
2023-04-18T04:32:13.973Z,99989.78
2023-04-18T04:34:41.715Z,99991.72
2023-04-18T04:37:08.344Z,99995.72
2023-04-18T04:39:35.077Z,99984.13
2023-04-18T04:42:04.547Z,99999.19
2023-04-18T04:44:31.527Z,99998.19
2023-04-18T04:46:58.299Z,99999.66
2023-04-18T04:49:27.564Z,100000.09
2023-04-18T04:51:54.213Z,100003.53
2023-04-18T04:54:20.884Z,100009.13
2023-04-18T04:56:47.606Z,100009.59
2023-04-18T04:59:14.334Z,100013.94
2023-04-18T05:01:41.061Z,100015.47
2023-04-18T05:04:07.797Z,100006.34
2023-04-18T05:06:34.651Z,100014.72
2023-04-18T05:09:01.291Z,100013.03
2023-04-18T05:11:27.986Z,100007.22
2023-04-18T05:13:54.879Z,100007.50
2023-04-18T05:16:21.747Z,100010.31
2023-04-18T05:18:48.525Z,100012.56
2023-04-18T05:21:15.188Z,100014.13
2023-04-18T05:23:41.759Z,100011.69
2023-04-18T05:26:08.471Z,100012.22
2023-04-18T05:28:35.090Z,100024.56
2023-04-18T05:31:01.847Z,100012.66
2023-04-18T05:33:31.938Z,100023.44
2023-04-18T05:35:58.918Z,100020.59
2023-04-18T05:38:25.775Z,100019.81
2023-04-18T05:40:55.425Z,100031.50
2023-04-18T05:43:22.494Z,100030.25
2023-04-18T05:45:49.300Z,100029.94
2023-04-18T05:48:15.968Z,100039.91
2023-04-18T05:50:42.631Z,100041.31
2023-04-18T05:53:09.274Z,100026.97
2023-04-18T05:55:35.896Z,100036.84
2023-04-18T05:58:02.589Z,100035.88
2023-04-18T06:00:29.214Z,100052.22
2023-04-18T06:02:56.026Z,100049.66
2023-04-18T06:05:23.302Z,100037.41
2023-04-18T06:07:50.194Z,100050.53
2023-04-18T06:10:17.209Z,100036.47
2023-04-18T06:12:43.921Z,100042.88
2023-04-18T06:15:11.235Z,100045.75
2023-04-18T06:17:37.925Z,100045.00
2023-04-18T06:20:06.269Z,100044.34
2023-04-18T06:22:36.670Z,100050.44
2023-04-18T06:25:03.624Z,100050.56
2023-04-18T06:27:31.819Z,100060.22
2023-04-18T06:29:59.022Z,100053.88
2023-04-18T06:32:26.087Z,100059.34
2023-04-18T06:34:53.283Z,100064.34
2023-04-18T06:37:20.397Z,100059.44
2023-04-18T06:39:49.842Z,100052.16
2023-04-18T06:42:16.579Z,100057.88
2023-04-18T06:44:43.305Z,100057.53
2023-04-18T06:47:10.896Z,100060.50
2023-04-18T06:49:37.557Z,100065.72
2023-04-18T06:52:04.427Z,100068.09
2023-04-18T06:54:31.051Z,100063.97
2023-04-18T06:56:58.877Z,100063.38
2023-04-18T06:59:25.576Z,100061.00
2023-04-18T07:01:52.284Z,100064.84
2023-04-18T07:04:19.144Z,100067.69
2023-04-18T07:06:46.163Z,100070.31
2023-04-18T07:09:12.798Z,100069.81
2023-04-18T07:11:40.713Z,100074.53
2023-04-18T07:14:07.462Z,100069.72
2023-04-18T07:16:34.754Z,100072.44
2023-04-18T07:19:01.487Z,100079.50
2023-04-18T07:21:28.385Z,100078.88
2023-04-18T07:23:55.353Z,100078.63
2023-04-18T07:26:22.205Z,100083.22
2023-04-18T07:28:49.439Z,100085.78
2023-04-18T07:31:16.704Z,100090.50
2023-04-18T07:33:43.688Z,100095.00
2023-04-18T07:36:10.929Z,100091.72
2023-04-18T07:38:37.761Z,100088.25
2023-04-18T07:41:04.680Z,100101.47
2023-04-18T07:43:31.446Z,100097.47
2023-04-18T07:45:58.140Z,100097.84
2023-04-18T07:48:27.858Z,100107.16
2023-04-18T07:50:54.496Z,100107.66
2023-04-18T07:53:21.274Z,100110.63
2023-04-18T07:55:48.333Z,100112.28
2023-04-18T07:58:15.007Z,100119.72
2023-04-18T08:00:43.888Z,100113.91
2023-04-18T08:03:12.554Z,100123.59
2023-04-18T08:05:40.225Z,100125.34
2023-04-18T08:08:08.297Z,100136.88
2023-04-18T08:10:35.445Z,100140.34
2023-04-18T08:13:03.200Z,100146.97
2023-04-18T08:15:32.297Z,100150.31
2023-04-18T08:17:59.950Z,100145.41
2023-04-18T08:20:27.140Z,100153.06
2023-04-18T08:23:06.367Z,100151.13
2023-04-18T08:25:36.372Z,100152.25
2023-04-18T08:28:04.063Z,100154.06
2023-04-18T08:30:31.291Z,100153.69
2023-04-18T08:33:00.282Z,100151.94
2023-04-18T08:35:27.210Z,100154.28
2023-04-18T08:37:53.902Z,100160.53
2023-04-18T08:40:20.609Z,100162.00
2023-04-18T08:42:47.401Z,100158.91
2023-04-18T08:45:18.664Z,100163.78
2023-04-18T08:47:45.731Z,100156.69
2023-04-18T08:50:12.796Z,100156.59
2023-04-18T08:52:40.226Z,100156.94
2023-04-18T08:55:07.582Z,100160.59
2023-04-18T08:57:35.846Z,100156.25
2023-04-18T09:00:08.149Z,100153.28
2023-04-18T09:02:43.834Z,100154.75
2023-04-18T09:05:21.397Z,100150.81
2023-04-18T09:07:49.638Z,100154.59
2023-04-18T09:10:27.557Z,100152.94
2023-04-18T09:12:54.823Z,100162.16
2023-04-18T09:15:23.980Z,100164.41
2023-04-18T09:17:56.268Z,100157.13
2023-04-18T09:20:38.504Z,100154.47
2023-04-18T09:23:15.468Z,100162.09
2023-04-18T09:25:44.471Z,100161.78
2023-04-18T09:28:23.795Z,100168.91
2023-04-18T09:30:52.542Z,100167.72
2023-04-18T09:33:29.716Z,100161.97
2023-04-18T09:35:57.388Z,100164.06
2023-04-18T09:38:41.233Z,100177.88
2023-04-18T09:41:09.289Z,100178.75
2023-04-18T09:43:35.867Z,100173.50
2023-04-18T09:46:04.381Z,100164.78
2023-04-18T09:48:31.512Z,100167.72
2023-04-18T09:51:01.470Z,100166.63
2023-04-18T09:53:29.498Z,100172.25
2023-04-18T09:55:57.894Z,100170.28
2023-04-18T09:58:25.990Z,100167.19
2023-04-18T10:00:54.197Z,100173.63
2023-04-18T10:03:26.742Z,100168.75
2023-04-18T10:05:54.886Z,100172.78
2023-04-18T10:08:23.107Z,100168.63
2023-04-18T10:10:49.690Z,100171.97
2023-04-18T10:13:20.248Z,100171.59
2023-04-18T10:15:47.295Z,100166.91
2023-04-18T10:18:17.027Z,100167.34
2023-04-18T10:20:44.610Z,100170.78
2023-04-18T10:23:36.105Z,100167.63
2023-04-18T10:26:10.544Z,100167.75
2023-04-18T10:28:53.612Z,100166.00
2023-04-18T10:31:28.544Z,100172.91
2023-04-18T10:34:05.388Z,100170.09
2023-04-18T10:36:33.155Z,100166.84
2023-04-18T10:39:05.840Z,100172.47
2023-04-18T10:41:34.294Z,100170.66
2023-04-18T10:44:08.483Z,100178.91
2023-04-18T10:46:38.522Z,100168.94
2023-04-18T10:49:18.527Z,100173.47
2023-04-18T10:51:46.819Z,100174.03
2023-04-18T10:54:21.137Z,100173.09
2023-04-18T10:56:55.994Z,100168.34
2023-04-18T10:59:24.194Z,100175.00
2023-04-18T11:01:56.998Z,100176.44
2023-04-18T11:04:24.770Z,100178.00
2023-04-18T11:06:55.007Z,100174.13
2023-04-18T11:09:22.523Z,100179.59
2023-04-18T11:12:09.161Z,100168.53
2023-04-18T11:15:12.162Z,100176.25
2023-04-18T11:17:40.356Z,100174.84
2023-04-18T11:20:14.895Z,100179.59
2023-04-18T11:22:54.685Z,100175.78
2023-04-18T11:25:24.229Z,100182.06
2023-04-18T11:27:57.460Z,100175.44
2023-04-18T11:30:24.301Z,100182.63
2023-04-18T11:32:52.426Z,100177.81
2023-04-18T11:35:19.115Z,100178.44
2023-04-18T11:37:46.158Z,100180.69
2023-04-18T11:40:14.249Z,100186.91
2023-04-18T11:42:41.571Z,100180.47
2023-04-18T11:45:15.541Z,100180.66
2023-04-18T11:47:43.414Z,100183.09
2023-04-18T11:50:12.020Z,100171.94
2023-04-18T11:52:41.205Z,100173.03
2023-04-18T11:55:13.861Z,100170.91
2023-04-18T11:57:41.501Z,100173.03
2023-04-18T12:00:10.564Z,100171.97
2023-04-18T12:02:45.780Z,100169.09
2023-04-18T12:05:24.188Z,100172.94
2023-04-18T12:07:51.394Z,100167.06
2023-04-18T12:10:20.941Z,100172.09
2023-04-18T12:13:00.267Z,100166.38
2023-04-18T12:15:28.938Z,100164.16
2023-04-18T12:18:00.654Z,100174.94
2023-04-18T12:20:54.217Z,100170.28
2023-04-18T12:23:39.066Z,100170.06
2023-04-18T12:26:07.958Z,100169.31
2023-04-18T12:28:35.425Z,100167.75
2023-04-18T12:31:03.088Z,100165.81
2023-04-18T12:33:30.678Z,100163.25
2023-04-18T12:35:57.430Z,100161.03
2023-04-18T12:38:24.417Z,100162.47
2023-04-18T12:40:52.108Z,100164.78
2023-04-18T12:43:19.136Z,100161.59
2023-04-18T12:45:47.112Z,100163.22
2023-04-18T12:48:13.968Z,100162.16
2023-04-18T12:50:40.695Z,100165.34
2023-04-18T12:53:07.468Z,100155.34
2023-04-18T12:55:34.151Z,100161.59
2023-04-18T12:58:00.874Z,100160.75
2023-04-18T13:00:30.272Z,100161.03
2023-04-18T13:02:57.422Z,100156.44
2023-04-18T13:05:29.836Z,100155.63
2023-04-18T13:08:15.471Z,100150.63
2023-04-18T13:10:43.471Z,100156.56
2023-04-18T13:13:10.175Z,100155.06
2023-04-18T13:15:36.817Z,100147.41
2023-04-18T13:18:06.354Z,100157.19
2023-04-18T13:20:34.178Z,100148.31
2023-04-18T13:23:02.748Z,100147.97
2023-04-18T13:25:29.579Z,100150.94
2023-04-18T13:27:58.392Z,100137.44
2023-04-18T13:30:26.274Z,100141.50
2023-04-18T13:32:56.864Z,100148.22
2023-04-18T13:35:23.678Z,100140.66
2023-04-18T13:37:50.632Z,100148.53
2023-04-18T13:40:17.213Z,100138.78
2023-04-18T13:42:43.985Z,100139.13
2023-04-18T13:45:11.086Z,100138.78
2023-04-18T13:47:37.957Z,100134.22
2023-04-18T13:50:08.335Z,100141.19
2023-04-18T13:52:35.346Z,100140.59
2023-04-18T13:55:02.061Z,100138.88
2023-04-18T13:57:32.083Z,100132.03
2023-04-18T13:59:58.858Z,100139.22
2023-04-18T14:02:25.758Z,100142.19
2023-04-18T14:04:54.426Z,100143.66
2023-04-18T14:07:21.155Z,100139.28
2023-04-18T14:09:48.249Z,100135.53
2023-04-18T14:12:14.946Z,100143.47
2023-04-18T14:14:42.007Z,100127.25
2023-04-18T14:17:08.625Z,100133.53
2023-04-18T14:19:36.219Z,100131.22
2023-04-18T14:22:02.819Z,100136.25
2023-04-18T14:24:29.450Z,100137.94
2023-04-18T14:26:56.042Z,100136.53
2023-04-18T14:29:22.616Z,100130.34
2023-04-18T14:31:49.316Z,100129.41
2023-04-18T14:34:16.037Z,100134.38
2023-04-18T14:36:42.656Z,100135.81
2023-04-18T14:39:09.255Z,100142.00
2023-04-18T14:41:36.103Z,100138.66
2023-04-18T14:44:04.079Z,100127.16
2023-04-18T14:46:31.576Z,100131.97
2023-04-18T14:48:58.258Z,100130.59
2023-04-18T14:51:24.893Z,100133.63
2023-04-18T14:53:51.608Z,100131.91
2023-04-18T14:56:21.086Z,100130.00
2023-04-18T14:58:47.985Z,100132.47
2023-04-18T15:01:14.662Z,100126.09
2023-04-18T15:03:41.436Z,100130.28
2023-04-18T15:06:08.490Z,100126.28
2023-04-18T15:08:35.110Z,100125.69
2023-04-18T15:11:06.845Z,100130.41
2023-04-18T15:13:34.013Z,100122.28
2023-04-18T15:16:01.436Z,100125.56
2023-04-18T15:18:28.433Z,100122.50
2023-04-18T15:20:59.328Z,100129.94
2023-04-18T15:23:26.141Z,100132.63
2023-04-18T15:25:54.795Z,100129.16
2023-04-18T15:28:21.457Z,100131.47
2023-04-18T15:30:48.040Z,100132.84
2023-04-18T15:33:15.807Z,100130.00
2023-04-18T15:35:42.462Z,100128.28
2023-04-18T15:38:09.058Z,100129.13
2023-04-18T15:40:37.604Z,100129.06
2023-04-18T15:43:04.376Z,100126.94
2023-04-18T15:45:31.351Z,100131.34
2023-04-18T15:47:58.016Z,100128.03
2023-04-18T15:50:24.833Z,100136.72
2023-04-18T15:52:55.869Z,100135.63
2023-04-18T15:55:23.534Z,100126.19
2023-04-18T15:57:50.188Z,100120.47
2023-04-18T16:00:20.153Z,100123.19
2023-04-18T16:02:46.960Z,100129.00
2023-04-18T16:05:14.303Z,100128.16
2023-04-18T16:07:42.488Z,100126.28
2023-04-18T16:10:10.809Z,100119.72
2023-04-18T16:12:39.589Z,100118.22
2023-04-18T16:15:08.662Z,100119.88
2023-04-18T16:17:36.722Z,100116.28
2023-04-18T16:20:03.840Z,100118.66
2023-04-18T16:22:30.739Z,100118.72
2023-04-18T16:24:58.529Z,100127.19
2023-04-18T16:27:26.253Z,100130.31
2023-04-18T16:29:53.777Z,100130.31
2023-04-18T16:32:20.951Z,100131.88
2023-04-18T16:34:48.171Z,100130.66
2023-04-18T16:37:14.774Z,100137.44
2023-04-18T16:39:41.460Z,100134.31
2023-04-18T16:42:08.062Z,100134.16
2023-04-18T16:44:34.688Z,100140.63
2023-04-18T16:47:01.413Z,100135.53
2023-04-18T16:49:28.081Z,100133.53
2023-04-18T16:51:54.707Z,100137.63
2023-04-18T16:54:21.442Z,100134.16
2023-04-18T16:56:48.398Z,100139.22
2023-04-18T16:59:15.016Z,100148.25
2023-04-18T17:01:41.771Z,100150.88
2023-04-18T17:04:08.512Z,100151.72
2023-04-18T17:06:35.339Z,100151.34
2023-04-18T17:09:02.141Z,100154.44
2023-04-18T17:11:28.760Z,100149.44
2023-04-18T17:13:55.451Z,100147.88
2023-04-18T17:16:22.279Z,100150.50
2023-04-18T17:18:48.895Z,100155.69
2023-04-18T17:21:15.501Z,100157.66
2023-04-18T17:23:42.683Z,100161.25
2023-04-18T17:26:10.042Z,100154.53
2023-04-18T17:28:37.041Z,100156.13
2023-04-18T17:31:03.929Z,100156.38
2023-04-18T17:33:31.154Z,100160.84
2023-04-18T17:35:58.451Z,100161.06
2023-04-18T17:38:25.293Z,100161.06
2023-04-18T17:41:02.499Z,100161.91
2023-04-18T17:43:29.579Z,100155.41
2023-04-18T17:45:59.132Z,100161.41
2023-04-18T17:48:26.139Z,100163.00
2023-04-18T17:50:52.837Z,100155.75
2023-04-18T17:53:19.602Z,100158.09
2023-04-18T17:55:48.879Z,100154.03
2023-04-18T17:58:16.939Z,100157.00
2023-04-18T18:00:43.743Z,100158.28
2023-04-18T18:03:13.839Z,100159.72
2023-04-18T18:05:41.784Z,100158.00
2023-04-18T18:08:08.521Z,100162.16
2023-04-18T18:10:35.267Z,100158.34
2023-04-18T18:13:02.018Z,100166.00
2023-04-18T18:15:28.652Z,100161.53
2023-04-18T18:17:55.741Z,100163.63
2023-04-18T18:20:23.632Z,100169.06
2023-04-18T18:22:50.868Z,100161.88
2023-04-18T18:25:17.778Z,100167.44
2023-04-18T18:27:44.869Z,100162.19
2023-04-18T18:30:11.575Z,100163.16
2023-04-18T18:32:38.217Z,100164.41
2023-04-18T18:35:07.297Z,100159.69
2023-04-18T18:37:33.887Z,100167.03
2023-04-18T18:40:00.583Z,100166.47
2023-04-18T18:42:27.234Z,100167.78
2023-04-18T18:44:53.851Z,100173.97
2023-04-18T18:47:20.491Z,100170.59
2023-04-18T18:49:48.820Z,100165.03
2023-04-18T18:52:15.967Z,100165.91
2023-04-18T18:54:44.016Z,100158.31
2023-04-18T18:57:10.664Z,100160.78
2023-04-18T18:59:37.407Z,100161.13
2023-04-18T19:02:04.339Z,100167.13
2023-04-18T19:04:31.159Z,100164.81
2023-04-18T19:06:57.884Z,100163.63
2023-04-18T19:09:24.516Z,100164.88
2023-04-18T19:11:51.392Z,100166.00
2023-04-18T19:14:18.068Z,100159.72
2023-04-18T19:16:44.789Z,100156.03
2023-04-18T19:19:11.601Z,100165.97
2023-04-18T19:21:39.805Z,100162.53
2023-04-18T19:24:06.743Z,100164.69
2023-04-18T19:26:33.346Z,100160.47
2023-04-18T19:28:59.956Z,100165.66
2023-04-18T19:31:26.659Z,100166.50
2023-04-18T19:33:53.397Z,100160.75
2023-04-18T19:36:20.064Z,100172.50
2023-04-18T19:38:46.670Z,100171.81
2023-04-18T19:41:13.394Z,100170.06
2023-04-18T19:43:40.764Z,100169.41
2023-04-18T19:46:07.359Z,100172.22
2023-04-18T19:48:34.770Z,100169.34
2023-04-18T19:51:01.863Z,100164.50
2023-04-18T19:53:28.638Z,100175.41
2023-04-18T19:55:56.734Z,100165.66
2023-04-18T19:58:44.591Z,100174.81
2023-04-18T20:01:21.859Z,100168.50
2023-04-18T20:03:48.741Z,100171.88
2023-04-18T20:06:16.758Z,100168.31
2023-04-18T20:08:45.259Z,100166.06
2023-04-18T20:11:14.180Z,100159.50
2023-04-18T20:13:41.317Z,100163.31
2023-04-18T20:16:09.104Z,100157.63
2023-04-18T20:18:39.419Z,100154.50
2023-04-18T20:21:07.587Z,100156.50
2023-04-18T20:23:35.401Z,100165.88
2023-04-18T20:26:03.119Z,100162.06
2023-04-18T20:28:31.088Z,100156.34
2023-04-18T20:30:58.452Z,100158.34
2023-04-18T20:33:25.155Z,100158.34
2023-04-18T20:35:53.670Z,100149.41
2023-04-18T20:38:25.794Z,100151.88
2023-04-18T20:40:53.305Z,100154.41
2023-04-18T20:43:20.353Z,100159.88
2023-04-18T20:45:51.395Z,100160.53
2023-04-18T20:48:18.427Z,100149.38
2023-04-18T20:50:50.813Z,100161.72
2023-04-18T20:53:21.053Z,100156.91
2023-04-18T20:55:48.825Z,100154.06
2023-04-18T20:58:16.324Z,100152.91
2023-04-18T21:00:45.610Z,100153.47
2023-04-18T21:03:16.488Z,100155.72
2023-04-18T21:05:44.608Z,100152.97
2023-04-18T21:08:11.574Z,100160.28
2023-04-18T21:10:38.486Z,100166.09
2023-04-18T21:13:05.303Z,100164.00
2023-04-18T21:15:32.142Z,100159.63
2023-04-18T21:17:58.814Z,100168.06
2023-04-18T21:20:26.665Z,100151.44
2023-04-18T21:22:53.308Z,100161.34
2023-04-18T21:25:21.396Z,100163.50
2023-04-18T21:27:50.453Z,100157.16
2023-04-18T21:30:17.296Z,100164.31
2023-04-18T21:32:44.015Z,100160.50
2023-04-18T21:35:10.721Z,100160.50
2023-04-18T21:37:37.721Z,100152.59
2023-04-18T21:40:04.945Z,100152.38
2023-04-18T21:42:31.651Z,100148.81
2023-04-18T21:44:58.339Z,100147.22
2023-04-18T21:47:25.946Z,100150.00
2023-04-18T21:49:52.698Z,100140.66
2023-04-18T21:52:19.450Z,100150.59
2023-04-18T21:54:46.019Z,100145.25
2023-04-18T21:57:12.641Z,100139.50
2023-04-18T21:59:40.449Z,100144.84
2023-04-18T22:02:07.226Z,100143.53
2023-04-18T22:04:34.949Z,100143.88
2023-04-18T22:07:02.673Z,100147.88
2023-04-18T22:09:29.803Z,100142.25
2023-04-18T22:11:57.047Z,100134.31
2023-04-18T22:14:24.968Z,100141.16
2023-04-18T22:16:51.790Z,100143.47
2023-04-18T22:19:19.274Z,100133.56
2023-04-18T22:21:46.290Z,100137.91
2023-04-18T22:24:13.148Z,100136.94
2023-04-18T22:26:41.340Z,100131.28
2023-04-18T22:29:10.273Z,100139.69
2023-04-18T22:31:36.902Z,100137.84
2023-04-18T22:34:04.551Z,100135.25
2023-04-18T22:36:31.401Z,100133.72
2023-04-18T22:38:57.984Z,100138.75
2023-04-18T22:41:24.790Z,100133.06
2023-04-18T22:43:51.403Z,100126.47
2023-04-18T22:46:18.390Z,100121.13
2023-04-18T22:48:46.211Z,100125.72
2023-04-18T22:51:14.263Z,100125.25
2023-04-18T22:53:41.013Z,100116.66
2023-04-18T22:56:08.080Z,100111.88
2023-04-18T22:58:34.705Z,100115.81
2023-04-18T23:01:01.292Z,100114.06
2023-04-18T23:03:28.055Z,100115.94
2023-04-18T23:05:54.781Z,100111.56
2023-04-18T23:08:22.686Z,100111.16
2023-04-18T23:10:49.470Z,100106.13
2023-04-18T23:13:16.088Z,100108.75
2023-04-18T23:15:42.804Z,100102.00
2023-04-18T23:18:09.504Z,100105.25
2023-04-18T23:20:37.435Z,100094.81
2023-04-18T23:23:04.057Z,100096.66
2023-04-18T23:25:33.881Z,100102.31
2023-04-18T23:28:00.474Z,100090.16
2023-04-18T23:30:27.130Z,100095.97
2023-04-18T23:32:53.975Z,100098.88
2023-04-18T23:35:22.718Z,100088.59
2023-04-18T23:37:50.160Z,100090.75
2023-04-18T23:40:17.076Z,100086.06
2023-04-18T23:42:44.047Z,100082.69
2023-04-18T23:45:11.152Z,100082.06
2023-04-18T23:47:37.865Z,100078.13
2023-04-18T23:50:05.294Z,100080.72
2023-04-18T23:52:31.938Z,100077.69
2023-04-18T23:55:01.873Z,100070.50
2023-04-18T23:57:31.438Z,100069.13
2023-04-18T23:59:58.114Z,100072.44
